PAFA METAR and TAF | Updated Today

PAFA METAR

Fairbanks International Airport

Observation time: 38 min. ago

PAFA 061853Z 00000KT 10SM SCT075 OVC100 06/03 A3000 RMK AO2 SLP165 T00610028

Need help? Read our tutorial on how to read METARs or read the parsed version below.

Fairbanks International Airport (PAFA) METAR

  • Weather conditions on Thu, 06 Oct 2022 18:53:00 +0000 (38 min. ago):
  • Present conditions: Dry
  • Clouds: Scattered at 2286 meters; overcast sky at 3048 meters
  • Visibility: 16093 meters
  • Wind: Calm
  • Temperature: 6 celsius
  • Dew point: 3 celsius
  • Pressure: 30 inHg
  • Remarks: AO2 SLP165 T00610028


Useful to know...

PAFA TAF

Fairbanks International Airport

PAFA 061720Z 0618/0724 VRB04KT P6SM VCSH SCT050 BKN070 FM071500 25008KT 3SM -SHRA BR BKN015 OVC040
Observation time: 2:11 hr. ago
Need help? Read our tutorial on how to read TAFs or read the parsed version below.

Parsed version of TAF for Fairbanks International Airport (PAFA)

  • From 06 October at 18:00 UTC, to day 07 of the month at 24:00 UTC
  • Clouds: Scattered at 1524 meters; broken sky at 2134 meters
  • Wind: Variable at 4
  • Other: In the vicinity, showers of
  • From day 7 of the month at 15:00 UTC
  • Clouds: Broken sky at 457 meters; overcast sky at 1219 meters
  • Visibility: 4828 meters
  • Wind: 250 degrees at 8
  • Other: Light showers of rain; mist